sensor_id;sensor_type;location;lat;lon;timestamp;P1;durP1;ratioP1;P2;durP2;ratioP2
34924;SDS011;21130;51.728;8.748;2022-08-14T00:02:02;8.93;;;7.80;;
34924;SDS011;21130;51.728;8.748;2022-08-14T00:04:29;8.30;;;7.50;;
34924;SDS011;21130;51.728;8.748;2022-08-14T00:06:55;7.25;;;6.15;;
34924;SDS011;21130;51.728;8.748;2022-08-14T00:09:20;7.65;;;7.00;;
34924;SDS011;21130;51.728;8.748;2022-08-14T00:11:46;7.82;;;7.10;;
34924;SDS011;21130;51.728;8.748;2022-08-14T00:14:11;7.35;;;6.75;;
34924;SDS011;21130;51.728;8.748;2022-08-14T00:16:36;7.22;;;6.63;;
34924;SDS011;21130;51.728;8.748;2022-08-14T00:19:02;7.10;;;6.50;;
34924;SDS011;21130;51.728;8.748;2022-08-14T00:21:28;7.10;;;6.50;;
34924;SDS011;21130;51.728;8.748;2022-08-14T00:23:53;7.38;;;6.70;;
34924;SDS011;21130;51.728;8.748;2022-08-14T00:26:20;7.55;;;6.95;;
34924;SDS011;21130;51.728;8.748;2022-08-14T00:28:47;8.25;;;7.55;;
34924;SDS011;21130;51.728;8.748;2022-08-14T00:31:12;7.60;;;7.00;;
34924;SDS011;21130;51.728;8.748;2022-08-14T00:33:38;7.32;;;6.72;;
34924;SDS011;21130;51.728;8.748;2022-08-14T00:36:04;7.00;;;6.50;;
34924;SDS011;21130;51.728;8.748;2022-08-14T00:38:29;8.48;;;7.68;;
34924;SDS011;21130;51.728;8.748;2022-08-14T00:40:55;7.13;;;6.60;;
34924;SDS011;21130;51.728;8.748;2022-08-14T00:43:20;7.93;;;7.22;;
34924;SDS011;21130;51.728;8.748;2022-08-14T00:45:46;7.63;;;6.93;;
34924;SDS011;21130;51.728;8.748;2022-08-14T00:48:11;7.47;;;6.78;;
34924;SDS011;21130;51.728;8.748;2022-08-14T00:50:37;7.97;;;7.05;;
34924;SDS011;21130;51.728;8.748;2022-08-14T00:53:03;8.23;;;7.53;;
34924;SDS011;21130;51.728;8.748;2022-08-14T00:55:29;8.02;;;7.35;;
34924;SDS011;21130;51.728;8.748;2022-08-14T00:57:55;8.45;;;7.40;;
34924;SDS011;21130;51.728;8.748;2022-08-14T01:00:41;7.78;;;7.18;;
34924;SDS011;21130;51.728;8.748;2022-08-14T01:03:08;7.50;;;7.00;;
34924;SDS011;21130;51.728;8.748;2022-08-14T01:05:34;8.30;;;7.70;;
34924;SDS011;21130;51.728;8.748;2022-08-14T01:08:00;8.20;;;7.25;;
34924;SDS011;21130;51.728;8.748;2022-08-14T01:10:27;8.70;;;7.88;;
34924;SDS011;21130;51.728;8.748;2022-08-14T01:13:12;9.35;;;8.55;;
34924;SDS011;21130;51.728;8.748;2022-08-14T01:15:41;9.95;;;9.13;;
34924;SDS011;21130;51.728;8.748;2022-08-14T01:18:10;9.20;;;8.30;;
34924;SDS011;21130;51.728;8.748;2022-08-14T01:20:55;7.85;;;7.15;;
34924;SDS011;21130;51.728;8.748;2022-08-14T01:23:28;8.52;;;7.80;;
34924;SDS011;21130;51.728;8.748;2022-08-14T01:25:54;7.97;;;7.30;;
34924;SDS011;21130;51.728;8.748;2022-08-14T01:28:20;8.75;;;8.05;;
34924;SDS011;21130;51.728;8.748;2022-08-14T01:30:46;9.23;;;8.43;;
34924;SDS011;21130;51.728;8.748;2022-08-14T01:33:13;8.90;;;8.00;;
34924;SDS011;21130;51.728;8.748;2022-08-14T01:35:40;8.52;;;7.80;;
34924;SDS011;21130;51.728;8.748;2022-08-14T01:38:11;9.05;;;8.20;;
34924;SDS011;21130;51.728;8.748;2022-08-14T01:40:39;8.40;;;7.38;;
34924;SDS011;21130;51.728;8.748;2022-08-14T01:43:11;8.75;;;7.95;;
34924;SDS011;21130;51.728;8.748;2022-08-14T01:45:38;8.77;;;7.80;;
34924;SDS011;21130;51.728;8.748;2022-08-14T01:48:04;9.00;;;8.25;;
34924;SDS011;21130;51.728;8.748;2022-08-14T01:50:30;8.55;;;7.85;;
34924;SDS011;21130;51.728;8.748;2022-08-14T01:52:55;8.05;;;7.35;;
34924;SDS011;21130;51.728;8.748;2022-08-14T01:55:21;8.38;;;7.63;;
34924;SDS011;21130;51.728;8.748;2022-08-14T01:57:49;8.73;;;7.82;;
34924;SDS011;21130;51.728;8.748;2022-08-14T02:00:14;8.98;;;8.15;;
34924;SDS011;21130;51.728;8.748;2022-08-14T02:02:41;8.30;;;7.60;;
34924;SDS011;21130;51.728;8.748;2022-08-14T02:05:10;8.32;;;7.72;;
34924;SDS011;21130;51.728;8.748;2022-08-14T02:07:36;7.90;;;7.20;;
34924;SDS011;21130;51.728;8.748;2022-08-14T02:10:02;8.50;;;7.80;;
34924;SDS011;21130;51.728;8.748;2022-08-14T02:12:29;8.55;;;7.85;;
34924;SDS011;21130;51.728;8.748;2022-08-14T02:14:54;8.43;;;7.63;;
34924;SDS011;21130;51.728;8.748;2022-08-14T02:17:20;8.48;;;7.70;;
34924;SDS011;21130;51.728;8.748;2022-08-14T02:19:47;10.50;;;7.90;;
34924;SDS011;21130;51.728;8.748;2022-08-14T02:22:14;9.23;;;8.43;;
34924;SDS011;21130;51.728;8.748;2022-08-14T02:24:43;8.93;;;8.18;;
34924;SDS011;21130;51.728;8.748;2022-08-14T02:27:08;8.73;;;8.02;;
34924;SDS011;21130;51.728;8.748;2022-08-14T02:29:35;9.07;;;8.27;;
34924;SDS011;21130;51.728;8.748;2022-08-14T02:32:02;8.32;;;7.63;;
34924;SDS011;21130;51.728;8.748;2022-08-14T02:34:31;9.13;;;8.23;;
34924;SDS011;21130;51.728;8.748;2022-08-14T02:37:02;8.77;;;7.97;;
34924;SDS011;21130;51.728;8.748;2022-08-14T02:39:31;8.63;;;7.93;;
34924;SDS011;21130;51.728;8.748;2022-08-14T02:41:58;8.50;;;7.53;;
34924;SDS011;21130;51.728;8.748;2022-08-14T02:44:24;8.88;;;8.15;;
34924;SDS011;21130;51.728;8.748;2022-08-14T02:46:51;8.85;;;8.07;;
34924;SDS011;21130;51.728;8.748;2022-08-14T02:49:18;8.15;;;7.35;;
34924;SDS011;21130;51.728;8.748;2022-08-14T02:51:51;8.82;;;8.02;;
34924;SDS011;21130;51.728;8.748;2022-08-14T02:54:17;8.65;;;7.85;;
34924;SDS011;21130;51.728;8.748;2022-08-14T02:56:43;9.02;;;8.10;;
34924;SDS011;21130;51.728;8.748;2022-08-14T02:59:09;8.45;;;7.75;;
34924;SDS011;21130;51.728;8.748;2022-08-14T03:01:35;8.40;;;7.53;;
34924;SDS011;21130;51.728;8.748;2022-08-14T03:04:01;9.52;;;8.63;;
34924;SDS011;21130;51.728;8.748;2022-08-14T03:06:30;8.80;;;7.90;;
34924;SDS011;21130;51.728;8.748;2022-08-14T03:08:55;8.93;;;8.13;;
34924;SDS011;21130;51.728;8.748;2022-08-14T03:11:21;9.20;;;8.50;;
34924;SDS011;21130;51.728;8.748;2022-08-14T03:13:48;8.80;;;8.10;;
34924;SDS011;21130;51.728;8.748;2022-08-14T03:16:20;8.35;;;7.65;;
34924;SDS011;21130;51.728;8.748;2022-08-14T03:18:48;8.40;;;7.75;;
34924;SDS011;21130;51.728;8.748;2022-08-14T03:21:17;8.82;;;8.05;;
34924;SDS011;21130;51.728;8.748;2022-08-14T03:23:45;9.82;;;9.00;;
34924;SDS011;21130;51.728;8.748;2022-08-14T03:26:13;8.68;;;7.82;;
34924;SDS011;21130;51.728;8.748;2022-08-14T03:28:49;9.57;;;8.52;;
34924;SDS011;21130;51.728;8.748;2022-08-14T03:31:16;9.05;;;8.30;;
34924;SDS011;21130;51.728;8.748;2022-08-14T03:33:46;9.40;;;8.60;;
34924;SDS011;21130;51.728;8.748;2022-08-14T03:36:12;10.35;;;8.55;;
34924;SDS011;21130;51.728;8.748;2022-08-14T03:38:44;9.13;;;8.32;;
34924;SDS011;21130;51.728;8.748;2022-08-14T03:41:22;9.23;;;8.20;;
34924;SDS011;21130;51.728;8.748;2022-08-14T03:43:51;9.10;;;8.20;;
34924;SDS011;21130;51.728;8.748;2022-08-14T03:46:24;8.90;;;8.10;;
34924;SDS011;21130;51.728;8.748;2022-08-14T03:48:52;8.93;;;8.13;;
34924;SDS011;21130;51.728;8.748;2022-08-14T03:51:21;8.98;;;8.13;;
34924;SDS011;21130;51.728;8.748;2022-08-14T03:53:51;8.75;;;7.95;;
34924;SDS011;21130;51.728;8.748;2022-08-14T03:56:17;8.98;;;8.27;;
34924;SDS011;21130;51.728;8.748;2022-08-14T03:58:47;8.70;;;8.00;;
34924;SDS011;21130;51.728;8.748;2022-08-14T04:01:17;9.13;;;8.40;;
34924;SDS011;21130;51.728;8.748;2022-08-14T04:03:48;9.32;;;8.13;;
34924;SDS011;21130;51.728;8.748;2022-08-14T04:06:15;8.65;;;7.85;;
34924;SDS011;21130;51.728;8.748;2022-08-14T04:08:42;9.30;;;8.43;;
34924;SDS011;21130;51.728;8.748;2022-08-14T04:11:08;8.80;;;7.82;;
34924;SDS011;21130;51.728;8.748;2022-08-14T04:13:35;9.05;;;8.15;;
34924;SDS011;21130;51.728;8.748;2022-08-14T04:16:02;8.57;;;7.78;;
34924;SDS011;21130;51.728;8.748;2022-08-14T04:18:29;8.60;;;7.82;;
34924;SDS011;21130;51.728;8.748;2022-08-14T04:20:56;8.25;;;7.55;;
34924;SDS011;21130;51.728;8.748;2022-08-14T04:23:22;8.85;;;8.00;;
34924;SDS011;21130;51.728;8.748;2022-08-14T04:25:50;8.52;;;7.82;;
34924;SDS011;21130;51.728;8.748;2022-08-14T04:28:19;9.52;;;8.63;;
34924;SDS011;21130;51.728;8.748;2022-08-14T04:30:45;8.63;;;7.90;;
34924;SDS011;21130;51.728;8.748;2022-08-14T04:33:10;8.55;;;7.82;;
34924;SDS011;21130;51.728;8.748;2022-08-14T04:35:38;9.18;;;8.48;;
34924;SDS011;21130;51.728;8.748;2022-08-14T04:38:05;8.27;;;7.57;;
34924;SDS011;21130;51.728;8.748;2022-08-14T04:40:50;8.85;;;7.93;;
34924;SDS011;21130;51.728;8.748;2022-08-14T04:43:34;8.25;;;7.53;;
34924;SDS011;21130;51.728;8.748;2022-08-14T04:46:08;8.20;;;7.50;;
34924;SDS011;21130;51.728;8.748;2022-08-14T04:48:35;9.00;;;8.27;;
34924;SDS011;21130;51.728;8.748;2022-08-14T04:51:05;8.95;;;8.05;;
34924;SDS011;21130;51.728;8.748;2022-08-14T04:53:33;8.88;;;8.07;;
34924;SDS011;21130;51.728;8.748;2022-08-14T04:56:00;8.45;;;7.72;;
34924;SDS011;21130;51.728;8.748;2022-08-14T04:58:28;8.77;;;8.07;;
34924;SDS011;21130;51.728;8.748;2022-08-14T05:00:55;9.15;;;8.25;;
34924;SDS011;21130;51.728;8.748;2022-08-14T05:03:23;8.68;;;7.88;;
34924;SDS011;21130;51.728;8.748;2022-08-14T05:05:51;8.35;;;7.55;;
34924;SDS011;21130;51.728;8.748;2022-08-14T05:08:18;8.90;;;8.10;;
34924;SDS011;21130;51.728;8.748;2022-08-14T05:10:45;8.07;;;7.38;;
34924;SDS011;21130;51.728;8.748;2022-08-14T05:13:14;8.68;;;7.85;;
34924;SDS011;21130;51.728;8.748;2022-08-14T05:15:40;8.95;;;8.18;;
34924;SDS011;21130;51.728;8.748;2022-08-14T05:18:07;9.55;;;7.82;;
34924;SDS011;21130;51.728;8.748;2022-08-14T05:20:36;8.27;;;7.57;;
34924;SDS011;21130;51.728;8.748;2022-08-14T05:23:03;8.70;;;8.10;;
34924;SDS011;21130;51.728;8.748;2022-08-14T05:25:29;8.63;;;7.80;;
34924;SDS011;21130;51.728;8.748;2022-08-14T05:27:54;8.27;;;7.53;;
34924;SDS011;21130;51.728;8.748;2022-08-14T05:30:24;9.27;;;7.28;;
34924;SDS011;21130;51.728;8.748;2022-08-14T05:32:50;9.95;;;7.90;;
34924;SDS011;21130;51.728;8.748;2022-08-14T05:35:15;8.35;;;7.65;;
34924;SDS011;21130;51.728;8.748;2022-08-14T05:37:42;8.60;;;7.80;;
34924;SDS011;21130;51.728;8.748;2022-08-14T05:40:07;7.90;;;7.30;;
34924;SDS011;21130;51.728;8.748;2022-08-14T05:42:34;8.70;;;7.85;;
34924;SDS011;21130;51.728;8.748;2022-08-14T05:45:00;8.48;;;7.78;;
34924;SDS011;21130;51.728;8.748;2022-08-14T05:47:26;7.90;;;7.15;;
34924;SDS011;21130;51.728;8.748;2022-08-14T05:49:51;8.65;;;7.80;;
34924;SDS011;21130;51.728;8.748;2022-08-14T05:52:16;8.00;;;7.20;;
34924;SDS011;21130;51.728;8.748;2022-08-14T05:54:42;8.40;;;7.70;;
34924;SDS011;21130;51.728;8.748;2022-08-14T05:57:07;7.97;;;7.28;;
34924;SDS011;21130;51.728;8.748;2022-08-14T05:59:32;7.47;;;6.85;;
34924;SDS011;21130;51.728;8.748;2022-08-14T06:01:58;7.97;;;7.13;;
34924;SDS011;21130;51.728;8.748;2022-08-14T06:04:24;8.38;;;7.63;;
34924;SDS011;21130;51.728;8.748;2022-08-14T06:06:49;8.52;;;7.78;;
34924;SDS011;21130;51.728;8.748;2022-08-14T06:09:14;7.60;;;6.90;;
34924;SDS011;21130;51.728;8.748;2022-08-14T06:11:40;8.55;;;7.70;;
34924;SDS011;21130;51.728;8.748;2022-08-14T06:14:05;7.95;;;7.35;;
34924;SDS011;21130;51.728;8.748;2022-08-14T06:16:31;7.07;;;6.40;;
34924;SDS011;21130;51.728;8.748;2022-08-14T06:18:56;7.50;;;6.90;;
34924;SDS011;21130;51.728;8.748;2022-08-14T06:21:22;7.50;;;6.80;;
34924;SDS011;21130;51.728;8.748;2022-08-14T06:23:47;7.72;;;7.00;;
34924;SDS011;21130;51.728;8.748;2022-08-14T06:26:12;8.00;;;7.28;;
34924;SDS011;21130;51.728;8.748;2022-08-14T06:28:37;8.10;;;7.43;;
34924;SDS011;21130;51.728;8.748;2022-08-14T06:31:03;7.63;;;6.95;;
34924;SDS011;21130;51.728;8.748;2022-08-14T06:33:28;7.88;;;7.20;;
34924;SDS011;21130;51.728;8.748;2022-08-14T06:35:54;7.00;;;6.43;;
34924;SDS011;21130;51.728;8.748;2022-08-14T06:38:20;8.07;;;7.38;;
34924;SDS011;21130;51.728;8.748;2022-08-14T06:40:47;7.90;;;6.93;;
34924;SDS011;21130;51.728;8.748;2022-08-14T06:43:13;7.50;;;6.90;;
34924;SDS011;21130;51.728;8.748;2022-08-14T06:45:40;7.15;;;6.45;;
34924;SDS011;21130;51.728;8.748;2022-08-14T06:48:14;7.60;;;6.97;;
34924;SDS011;21130;51.728;8.748;2022-08-14T06:50:42;6.93;;;6.35;;
34924;SDS011;21130;51.728;8.748;2022-08-14T06:53:07;7.40;;;6.20;;
34924;SDS011;21130;51.728;8.748;2022-08-14T06:55:33;6.80;;;6.20;;
34924;SDS011;21130;51.728;8.748;2022-08-14T06:57:59;7.93;;;6.82;;
34924;SDS011;21130;51.728;8.748;2022-08-14T07:00:25;7.38;;;6.75;;
34924;SDS011;21130;51.728;8.748;2022-08-14T07:02:51;7.70;;;7.00;;
34924;SDS011;21130;51.728;8.748;2022-08-14T07:05:36;7.53;;;6.82;;
34924;SDS011;21130;51.728;8.748;2022-08-14T07:10:49;7.53;;;6.90;;
34924;SDS011;21130;51.728;8.748;2022-08-14T07:13:16;7.60;;;6.97;;
34924;SDS011;21130;51.728;8.748;2022-08-14T07:15:46;6.97;;;6.47;;
34924;SDS011;21130;51.728;8.748;2022-08-14T07:18:14;7.53;;;6.78;;
34924;SDS011;21130;51.728;8.748;2022-08-14T07:20:54;7.85;;;7.15;;
34924;SDS011;21130;51.728;8.748;2022-08-14T07:23:21;8.30;;;7.20;;
34924;SDS011;21130;51.728;8.748;2022-08-14T07:25:50;7.22;;;6.53;;
34924;SDS011;21130;51.728;8.748;2022-08-14T07:28:19;7.53;;;6.60;;
34924;SDS011;21130;51.728;8.748;2022-08-14T07:30:59;7.50;;;6.90;;
34924;SDS011;21130;51.728;8.748;2022-08-14T07:33:27;7.55;;;6.88;;
34924;SDS011;21130;51.728;8.748;2022-08-14T07:35:54;7.43;;;6.65;;
34924;SDS011;21130;51.728;8.748;2022-08-14T07:38:23;9.23;;;6.75;;
34924;SDS011;21130;51.728;8.748;2022-08-14T07:40:49;7.55;;;6.63;;
34924;SDS011;21130;51.728;8.748;2022-08-14T07:43:15;6.78;;;6.28;;
34924;SDS011;21130;51.728;8.748;2022-08-14T07:45:41;6.93;;;6.38;;
34924;SDS011;21130;51.728;8.748;2022-08-14T07:48:07;7.75;;;7.15;;
34924;SDS011;21130;51.728;8.748;2022-08-14T07:50:33;7.40;;;6.70;;
34924;SDS011;21130;51.728;8.748;2022-08-14T07:53:00;7.18;;;6.47;;
34924;SDS011;21130;51.728;8.748;2022-08-14T07:55:25;7.90;;;7.20;;
34924;SDS011;21130;51.728;8.748;2022-08-14T07:57:51;7.78;;;7.07;;
34924;SDS011;21130;51.728;8.748;2022-08-14T08:00:17;7.40;;;6.60;;
34924;SDS011;21130;51.728;8.748;2022-08-14T08:02:47;7.32;;;6.72;;
34924;SDS011;21130;51.728;8.748;2022-08-14T08:05:13;7.57;;;6.97;;
34924;SDS011;21130;51.728;8.748;2022-08-14T08:07:40;8.23;;;6.38;;
34924;SDS011;21130;51.728;8.748;2022-08-14T08:12:55;7.57;;;6.80;;
34924;SDS011;21130;51.728;8.748;2022-08-14T08:15:23;7.50;;;6.90;;
34924;SDS011;21130;51.728;8.748;2022-08-14T08:17:50;7.65;;;6.97;;
34924;SDS011;21130;51.728;8.748;2022-08-14T08:20:19;7.72;;;6.90;;
34924;SDS011;21130;51.728;8.748;2022-08-14T08:22:49;7.40;;;6.70;;
34924;SDS011;21130;51.728;8.748;2022-08-14T08:25:16;7.50;;;6.80;;
34924;SDS011;21130;51.728;8.748;2022-08-14T08:27:52;6.95;;;6.32;;
34924;SDS011;21130;51.728;8.748;2022-08-14T08:30:27;6.88;;;6.28;;
34924;SDS011;21130;51.728;8.748;2022-08-14T08:32:56;7.35;;;6.70;;
34924;SDS011;21130;51.728;8.748;2022-08-14T08:35:23;7.18;;;6.57;;
34924;SDS011;21130;51.728;8.748;2022-08-14T08:37:50;6.97;;;6.30;;
34924;SDS011;21130;51.728;8.748;2022-08-14T08:40:27;6.50;;;6.00;;
34924;SDS011;21130;51.728;8.748;2022-08-14T08:42:55;6.45;;;5.88;;
34924;SDS011;21130;51.728;8.748;2022-08-14T08:45:21;6.22;;;5.75;;
34924;SDS011;21130;51.728;8.748;2022-08-14T08:47:47;6.68;;;6.03;;
34924;SDS011;21130;51.728;8.748;2022-08-14T08:50:15;7.40;;;6.60;;
34924;SDS011;21130;51.728;8.748;2022-08-14T08:52:47;6.75;;;6.00;;
34924;SDS011;21130;51.728;8.748;2022-08-14T08:55:14;6.90;;;6.30;;
34924;SDS011;21130;51.728;8.748;2022-08-14T08:57:40;6.80;;;6.20;;
34924;SDS011;21130;51.728;8.748;2022-08-14T09:00:14;7.20;;;6.50;;
34924;SDS011;21130;51.728;8.748;2022-08-14T09:02:41;7.07;;;6.38;;
34924;SDS011;21130;51.728;8.748;2022-08-14T09:05:18;8.20;;;6.13;;
34924;SDS011;21130;51.728;8.748;2022-08-14T09:07:43;6.93;;;6.32;;
34924;SDS011;21130;51.728;8.748;2022-08-14T09:10:09;7.18;;;6.47;;
34924;SDS011;21130;51.728;8.748;2022-08-14T09:12:34;6.65;;;6.15;;
34924;SDS011;21130;51.728;8.748;2022-08-14T09:15:00;7.47;;;6.78;;
34924;SDS011;21130;51.728;8.748;2022-08-14T09:17:27;6.53;;;6.03;;
34924;SDS011;21130;51.728;8.748;2022-08-14T09:19:53;6.47;;;5.90;;
34924;SDS011;21130;51.728;8.748;2022-08-14T09:22:20;6.82;;;6.10;;
34924;SDS011;21130;51.728;8.748;2022-08-14T09:24:46;6.43;;;5.93;;
34924;SDS011;21130;51.728;8.748;2022-08-14T09:27:13;6.20;;;5.70;;
34924;SDS011;21130;51.728;8.748;2022-08-14T09:29:38;6.63;;;6.00;;
34924;SDS011;21130;51.728;8.748;2022-08-14T09:32:03;6.43;;;5.82;;
34924;SDS011;21130;51.728;8.748;2022-08-14T09:37:38;5.82;;;5.43;;
34924;SDS011;21130;51.728;8.748;2022-08-14T09:40:13;6.32;;;5.75;;
34924;SDS011;21130;51.728;8.748;2022-08-14T09:43:03;6.10;;;5.60;;
34924;SDS011;21130;51.728;8.748;2022-08-14T09:45:44;6.15;;;5.65;;
34924;SDS011;21130;51.728;8.748;2022-08-14T09:48:15;6.10;;;5.60;;
34924;SDS011;21130;51.728;8.748;2022-08-14T09:50:44;6.05;;;5.50;;
34924;SDS011;21130;51.728;8.748;2022-08-14T09:53:11;6.95;;;5.28;;
34924;SDS011;21130;51.728;8.748;2022-08-14T09:55:42;6.00;;;5.50;;
34924;SDS011;21130;51.728;8.748;2022-08-14T10:03:34;6.00;;;5.55;;
34924;SDS011;21130;51.728;8.748;2022-08-14T10:06:09;5.30;;;4.90;;
34924;SDS011;21130;51.728;8.748;2022-08-14T10:08:44;5.32;;;4.93;;
34924;SDS011;21130;51.728;8.748;2022-08-14T10:11:21;5.47;;;5.00;;
34924;SDS011;21130;51.728;8.748;2022-08-14T10:13:48;5.38;;;4.97;;
34924;SDS011;21130;51.728;8.748;2022-08-14T10:16:22;4.93;;;4.53;;
34924;SDS011;21130;51.728;8.748;2022-08-14T10:19:06;4.90;;;4.60;;
34924;SDS011;21130;51.728;8.748;2022-08-14T10:21:33;5.15;;;4.75;;
34924;SDS011;21130;51.728;8.748;2022-08-14T10:24:00;5.35;;;4.85;;
34924;SDS011;21130;51.728;8.748;2022-08-14T10:26:25;5.28;;;4.88;;
34924;SDS011;21130;51.728;8.748;2022-08-14T10:28:51;5.07;;;4.68;;
34924;SDS011;21130;51.728;8.748;2022-08-14T10:31:22;4.97;;;4.53;;
34924;SDS011;21130;51.728;8.748;2022-08-14T10:34:00;5.00;;;4.60;;
34924;SDS011;21130;51.728;8.748;2022-08-14T10:36:40;5.22;;;4.82;;
34924;SDS011;21130;51.728;8.748;2022-08-14T10:39:16;5.57;;;5.18;;
34924;SDS011;21130;51.728;8.748;2022-08-14T10:41:43;4.95;;;4.65;;
34924;SDS011;21130;51.728;8.748;2022-08-14T10:44:14;5.30;;;4.75;;
34924;SDS011;21130;51.728;8.748;2022-08-14T10:46:41;9.45;;;4.70;;
34924;SDS011;21130;51.728;8.748;2022-08-14T10:49:22;5.43;;;4.93;;
34924;SDS011;21130;51.728;8.748;2022-08-14T10:52:03;5.38;;;4.90;;
34924;SDS011;21130;51.728;8.748;2022-08-14T10:54:35;6.93;;;5.82;;
34924;SDS011;21130;51.728;8.748;2022-08-14T10:57:24;5.13;;;4.53;;
34924;SDS011;21130;51.728;8.748;2022-08-14T10:59:55;7.25;;;6.55;;
34924;SDS011;21130;51.728;8.748;2022-08-14T11:07:41;5.15;;;4.75;;
34924;SDS011;21130;51.728;8.748;2022-08-14T11:10:18;5.50;;;5.07;;
34924;SDS011;21130;51.728;8.748;2022-08-14T11:12:45;5.35;;;4.85;;
34924;SDS011;21130;51.728;8.748;2022-08-14T11:15:18;5.32;;;4.82;;
34924;SDS011;21130;51.728;8.748;2022-08-14T11:17:45;5.90;;;4.85;;
34924;SDS011;21130;51.728;8.748;2022-08-14T11:20:12;5.07;;;4.68;;
34924;SDS011;21130;51.728;8.748;2022-08-14T11:22:39;4.57;;;4.28;;
34924;SDS011;21130;51.728;8.748;2022-08-14T11:25:05;5.00;;;4.60;;
34924;SDS011;21130;51.728;8.748;2022-08-14T11:27:33;4.97;;;4.68;;
34924;SDS011;21130;51.728;8.748;2022-08-14T11:29:59;4.68;;;4.35;;
34924;SDS011;21130;51.728;8.748;2022-08-14T11:32:28;5.22;;;4.72;;
34924;SDS011;21130;51.728;8.748;2022-08-14T11:34:59;4.63;;;4.32;;
34924;SDS011;21130;51.728;8.748;2022-08-14T11:37:27;4.82;;;4.43;;
34924;SDS011;21130;51.728;8.748;2022-08-14T11:39:54;5.35;;;4.95;;
34924;SDS011;21130;51.728;8.748;2022-08-14T11:42:24;6.00;;;5.40;;
34924;SDS011;21130;51.728;8.748;2022-08-14T11:44:51;6.03;;;5.53;;
34924;SDS011;21130;51.728;8.748;2022-08-14T11:47:20;5.45;;;5.05;;
34924;SDS011;21130;51.728;8.748;2022-08-14T11:49:46;6.60;;;6.10;;
34924;SDS011;21130;51.728;8.748;2022-08-14T11:52:13;5.35;;;4.95;;
34924;SDS011;21130;51.728;8.748;2022-08-14T11:54:42;5.07;;;4.57;;
34924;SDS011;21130;51.728;8.748;2022-08-14T11:57:14;5.15;;;4.75;;
34924;SDS011;21130;51.728;8.748;2022-08-14T11:59:40;5.05;;;4.72;;
34924;SDS011;21130;51.728;8.748;2022-08-14T12:02:14;4.80;;;4.40;;
34924;SDS011;21130;51.728;8.748;2022-08-14T12:04:47;4.53;;;4.22;;
34924;SDS011;21130;51.728;8.748;2022-08-14T12:07:17;4.85;;;4.45;;
34924;SDS011;21130;51.728;8.748;2022-08-14T12:09:43;5.20;;;4.70;;
34924;SDS011;21130;51.728;8.748;2022-08-14T12:12:16;5.47;;;4.78;;
34924;SDS011;21130;51.728;8.748;2022-08-14T12:14:49;6.25;;;5.72;;
34924;SDS011;21130;51.728;8.748;2022-08-14T12:17:17;4.85;;;4.45;;
34924;SDS011;21130;51.728;8.748;2022-08-14T12:19:44;4.80;;;4.40;;
34924;SDS011;21130;51.728;8.748;2022-08-14T12:22:12;5.05;;;4.65;;
34924;SDS011;21130;51.728;8.748;2022-08-14T12:24:38;4.70;;;4.30;;
34924;SDS011;21130;51.728;8.748;2022-08-14T12:27:07;4.90;;;4.45;;
34924;SDS011;21130;51.728;8.748;2022-08-14T12:29:32;5.10;;;4.65;;
34924;SDS011;21130;51.728;8.748;2022-08-14T12:31:58;4.55;;;4.25;;
34924;SDS011;21130;51.728;8.748;2022-08-14T12:34:31;4.78;;;4.38;;
34924;SDS011;21130;51.728;8.748;2022-08-14T12:37:05;4.80;;;4.40;;
34924;SDS011;21130;51.728;8.748;2022-08-14T12:39:33;5.30;;;4.90;;
34924;SDS011;21130;51.728;8.748;2022-08-14T12:42:00;4.50;;;4.10;;
34924;SDS011;21130;51.728;8.748;2022-08-14T12:44:37;4.95;;;4.40;;
34924;SDS011;21130;51.728;8.748;2022-08-14T12:49:50;4.80;;;4.40;;
34924;SDS011;21130;51.728;8.748;2022-08-14T12:52:31;4.60;;;4.20;;
34924;SDS011;21130;51.728;8.748;2022-08-14T12:55:02;4.32;;;4.03;;
34924;SDS011;21130;51.728;8.748;2022-08-14T12:57:39;4.65;;;4.25;;
34924;SDS011;21130;51.728;8.748;2022-08-14T13:00:11;4.93;;;4.53;;
34924;SDS011;21130;51.728;8.748;2022-08-14T13:02:42;4.50;;;4.20;;
34924;SDS011;21130;51.728;8.748;2022-08-14T13:05:13;4.55;;;4.25;;
34924;SDS011;21130;51.728;8.748;2022-08-14T13:07:39;4.20;;;3.90;;
34924;SDS011;21130;51.728;8.748;2022-08-14T13:10:10;4.25;;;3.95;;
34924;SDS011;21130;51.728;8.748;2022-08-14T13:12:40;4.30;;;4.00;;
34924;SDS011;21130;51.728;8.748;2022-08-14T13:15:10;4.45;;;4.05;;
34924;SDS011;21130;51.728;8.748;2022-08-14T13:17:48;4.53;;;4.22;;
34924;SDS011;21130;51.728;8.748;2022-08-14T13:20:17;4.63;;;4.32;;
34924;SDS011;21130;51.728;8.748;2022-08-14T13:22:44;4.32;;;3.92;;
34924;SDS011;21130;51.728;8.748;2022-08-14T13:25:18;4.53;;;4.15;;
34924;SDS011;21130;51.728;8.748;2022-08-14T13:27:50;4.97;;;4.57;;
34924;SDS011;21130;51.728;8.748;2022-08-14T13:30:19;4.65;;;4.35;;
34924;SDS011;21130;51.728;8.748;2022-08-14T13:32:46;4.45;;;4.15;;
34924;SDS011;21130;51.728;8.748;2022-08-14T13:35:12;4.57;;;4.28;;
34924;SDS011;21130;51.728;8.748;2022-08-14T13:37:42;4.78;;;4.38;;
34924;SDS011;21130;51.728;8.748;2022-08-14T13:40:10;4.88;;;4.28;;
34924;SDS011;21130;51.728;8.748;2022-08-14T13:42:40;4.75;;;4.43;;
34924;SDS011;21130;51.728;8.748;2022-08-14T13:45:08;4.45;;;4.15;;
34924;SDS011;21130;51.728;8.748;2022-08-14T13:47:35;4.28;;;3.97;;
34924;SDS011;21130;51.728;8.748;2022-08-14T13:50:01;4.50;;;4.10;;
34924;SDS011;21130;51.728;8.748;2022-08-14T13:52:29;5.75;;;4.47;;
34924;SDS011;21130;51.728;8.748;2022-08-14T13:55:00;5.00;;;4.60;;
34924;SDS011;21130;51.728;8.748;2022-08-14T13:57:30;4.63;;;4.22;;
34924;SDS011;21130;51.728;8.748;2022-08-14T13:59:58;5.78;;;4.35;;
34924;SDS011;21130;51.728;8.748;2022-08-14T14:02:33;4.60;;;4.28;;
34924;SDS011;21130;51.728;8.748;2022-08-14T14:05:02;4.55;;;4.10;;
34924;SDS011;21130;51.728;8.748;2022-08-14T14:07:28;4.65;;;4.35;;
34924;SDS011;21130;51.728;8.748;2022-08-14T14:09:57;4.25;;;3.95;;
34924;SDS011;21130;51.728;8.748;2022-08-14T14:12:26;5.85;;;4.20;;
34924;SDS011;21130;51.728;8.748;2022-08-14T14:14:52;4.60;;;4.20;;
34924;SDS011;21130;51.728;8.748;2022-08-14T14:17:17;4.43;;;4.13;;
34924;SDS011;21130;51.728;8.748;2022-08-14T14:19:48;4.22;;;3.92;;
34924;SDS011;21130;51.728;8.748;2022-08-14T14:22:14;4.50;;;4.20;;
34924;SDS011;21130;51.728;8.748;2022-08-14T14:24:41;4.35;;;4.03;;
34924;SDS011;21130;51.728;8.748;2022-08-14T14:27:07;4.68;;;4.28;;
34924;SDS011;21130;51.728;8.748;2022-08-14T14:29:33;4.43;;;4.10;;
34924;SDS011;21130;51.728;8.748;2022-08-14T14:32:00;4.50;;;4.20;;
34924;SDS011;21130;51.728;8.748;2022-08-14T14:34:27;4.82;;;3.72;;
34924;SDS011;21130;51.728;8.748;2022-08-14T14:36:54;4.50;;;4.10;;
34924;SDS011;21130;51.728;8.748;2022-08-14T14:39:28;4.90;;;4.50;;
34924;SDS011;21130;51.728;8.748;2022-08-14T14:41:55;4.75;;;4.35;;
34924;SDS011;21130;51.728;8.748;2022-08-14T14:44:26;4.50;;;4.13;;
34924;SDS011;21130;51.728;8.748;2022-08-14T14:46:58;4.53;;;4.20;;
34924;SDS011;21130;51.728;8.748;2022-08-14T14:49:24;4.18;;;3.90;;
34924;SDS011;21130;51.728;8.748;2022-08-14T14:51:51;4.47;;;4.07;;
34924;SDS011;21130;51.728;8.748;2022-08-14T14:54:18;4.40;;;4.00;;
34924;SDS011;21130;51.728;8.748;2022-08-14T14:56:46;4.15;;;3.85;;
34924;SDS011;21130;51.728;8.748;2022-08-14T14:59:12;4.00;;;3.70;;
34924;SDS011;21130;51.728;8.748;2022-08-14T15:01:39;4.10;;;3.80;;
34924;SDS011;21130;51.728;8.748;2022-08-14T15:04:07;4.82;;;3.70;;
34924;SDS011;21130;51.728;8.748;2022-08-14T15:06:33;4.53;;;4.22;;
34924;SDS011;21130;51.728;8.748;2022-08-14T15:09:00;4.35;;;3.95;;
34924;SDS011;21130;51.728;8.748;2022-08-14T15:11:28;4.47;;;4.07;;
34924;SDS011;21130;51.728;8.748;2022-08-14T15:13:53;4.50;;;4.20;;
34924;SDS011;21130;51.728;8.748;2022-08-14T15:16:19;4.85;;;4.45;;
34924;SDS011;21130;51.728;8.748;2022-08-14T15:18:45;4.38;;;4.07;;